sensor_id;sensor_type;location;lat;lon;timestamp;temperature;humidity
28010;DHT22;15334;49.494;8.410;2023-02-10T00:02:18;-1.70;99.90
28010;DHT22;15334;49.494;8.410;2023-02-10T00:04:46;-1.80;99.90
28010;DHT22;15334;49.494;8.410;2023-02-10T00:07:14;-1.80;99.90
28010;DHT22;15334;49.494;8.410;2023-02-10T00:09:43;-1.80;99.90
28010;DHT22;15334;49.494;8.410;2023-02-10T00:12:11;-1.80;99.90
28010;DHT22;15334;49.494;8.410;2023-02-10T00:14:40;-1.80;99.90
28010;DHT22;15334;49.494;8.410;2023-02-10T00:17:09;-1.90;99.90
28010;DHT22;15334;49.494;8.410;2023-02-10T00:19:39;-1.90;99.90
28010;DHT22;15334;49.494;8.410;2023-02-10T00:22:07;-1.80;99.90
28010;DHT22;15334;49.494;8.410;2023-02-10T00:24:38;-1.90;99.90
28010;DHT22;15334;49.494;8.410;2023-02-10T00:27:06;-1.90;99.90
28010;DHT22;15334;49.494;8.410;2023-02-10T00:29:35;-1.90;99.90
28010;DHT22;15334;49.494;8.410;2023-02-10T00:32:03;-2.00;99.90
28010;DHT22;15334;49.494;8.410;2023-02-10T00:34:33;-2.00;99.90
28010;DHT22;15334;49.494;8.410;2023-02-10T00:37:01;-2.00;99.90
28010;DHT22;15334;49.494;8.410;2023-02-10T00:39:29;-2.00;99.90
28010;DHT22;15334;49.494;8.410;2023-02-10T00:41:56;-2.00;99.90
28010;DHT22;15334;49.494;8.410;2023-02-10T00:44:24;-2.00;99.90
28010;DHT22;15334;49.494;8.410;2023-02-10T00:46:52;-2.00;99.90
28010;DHT22;15334;49.494;8.410;2023-02-10T00:49:20;-2.00;99.90
28010;DHT22;15334;49.494;8.410;2023-02-10T00:51:50;-2.00;99.90
28010;DHT22;15334;49.494;8.410;2023-02-10T00:54:18;-2.00;99.90
28010;DHT22;15334;49.494;8.410;2023-02-10T00:56:46;-2.00;99.90
28010;DHT22;15334;49.494;8.410;2023-02-10T00:59:14;-2.10;99.90
28010;DHT22;15334;49.494;8.410;2023-02-10T01:01:43;-2.10;99.90
28010;DHT22;15334;49.494;8.410;2023-02-10T01:04:11;-2.10;99.90
28010;DHT22;15334;49.494;8.410;2023-02-10T01:06:39;-2.10;99.90
28010;DHT22;15334;49.494;8.410;2023-02-10T01:09:13;-2.00;99.90
28010;DHT22;15334;49.494;8.410;2023-02-10T01:11:40;-2.00;99.90
28010;DHT22;15334;49.494;8.410;2023-02-10T01:14:11;-2.00;99.90
28010;DHT22;15334;49.494;8.410;2023-02-10T01:16:42;-2.00;99.90
28010;DHT22;15334;49.494;8.410;2023-02-10T01:19:12;-1.90;99.90
28010;DHT22;15334;49.494;8.410;2023-02-10T01:21:41;-1.90;99.90
28010;DHT22;15334;49.494;8.410;2023-02-10T01:24:11;-1.90;99.90
28010;DHT22;15334;49.494;8.410;2023-02-10T01:26:41;-1.90;99.90
28010;DHT22;15334;49.494;8.410;2023-02-10T01:29:10;-1.80;99.90
28010;DHT22;15334;49.494;8.410;2023-02-10T01:31:38;-1.90;99.90
28010;DHT22;15334;49.494;8.410;2023-02-10T01:34:11;-1.90;99.90
28010;DHT22;15334;49.494;8.410;2023-02-10T01:36:42;-1.90;99.90
28010;DHT22;15334;49.494;8.410;2023-02-10T01:39:13;-1.90;99.90
28010;DHT22;15334;49.494;8.410;2023-02-10T01:41:44;-1.90;99.90
28010;DHT22;15334;49.494;8.410;2023-02-10T01:47:16;-1.90;99.90
28010;DHT22;15334;49.494;8.410;2023-02-10T01:49:46;-1.90;99.90
28010;DHT22;15334;49.494;8.410;2023-02-10T01:52:19;-1.90;99.90
28010;DHT22;15334;49.494;8.410;2023-02-10T01:54:50;-2.00;99.90
28010;DHT22;15334;49.494;8.410;2023-02-10T01:57:19;-2.00;99.90
28010;DHT22;15334;49.494;8.410;2023-02-10T01:59:48;-2.00;99.90
28010;DHT22;15334;49.494;8.410;2023-02-10T02:02:17;-2.10;99.90
28010;DHT22;15334;49.494;8.410;2023-02-10T02:04:48;-2.10;99.90
28010;DHT22;15334;49.494;8.410;2023-02-10T02:07:18;-2.00;99.90
28010;DHT22;15334;49.494;8.410;2023-02-10T02:09:50;-2.10;99.90
28010;DHT22;15334;49.494;8.410;2023-02-10T02:12:24;-2.10;99.90
28010;DHT22;15334;49.494;8.410;2023-02-10T02:14:57;-2.10;99.90
28010;DHT22;15334;49.494;8.410;2023-02-10T02:17:33;-2.10;99.90
28010;DHT22;15334;49.494;8.410;2023-02-10T02:20:36;-2.10;99.90
28010;DHT22;15334;49.494;8.410;2023-02-10T02:23:25;-2.10;99.90
28010;DHT22;15334;49.494;8.410;2023-02-10T02:26:21;-2.10;99.90
28010;DHT22;15334;49.494;8.410;2023-02-10T02:29:11;-2.10;99.90
28010;DHT22;15334;49.494;8.410;2023-02-10T02:31:51;-2.10;99.90
28010;DHT22;15334;49.494;8.410;2023-02-10T02:34:27;-2.00;99.90
28010;DHT22;15334;49.494;8.410;2023-02-10T02:36:59;-2.00;99.90
28010;DHT22;15334;49.494;8.410;2023-02-10T02:39:28;-2.00;99.90
28010;DHT22;15334;49.494;8.410;2023-02-10T02:42:15;-2.00;99.90
28010;DHT22;15334;49.494;8.410;2023-02-10T02:44:45;-2.00;99.90
28010;DHT22;15334;49.494;8.410;2023-02-10T02:47:19;-2.00;99.90
28010;DHT22;15334;49.494;8.410;2023-02-10T02:49:56;-1.90;99.90
28010;DHT22;15334;49.494;8.410;2023-02-10T02:52:34;-1.90;99.90
28010;DHT22;15334;49.494;8.410;2023-02-10T02:55:09;-1.90;99.90
28010;DHT22;15334;49.494;8.410;2023-02-10T02:57:44;-1.90;99.90
28010;DHT22;15334;49.494;8.410;2023-02-10T03:00:16;-1.90;99.90
28010;DHT22;15334;49.494;8.410;2023-02-10T03:02:47;-1.90;99.90
28010;DHT22;15334;49.494;8.410;2023-02-10T03:05:18;-2.00;99.90
28010;DHT22;15334;49.494;8.410;2023-02-10T03:07:46;-2.00;99.90
28010;DHT22;15334;49.494;8.410;2023-02-10T03:10:14;-2.00;99.90
28010;DHT22;15334;49.494;8.410;2023-02-10T03:12:43;-2.00;99.90
28010;DHT22;15334;49.494;8.410;2023-02-10T03:15:11;-2.00;99.90
28010;DHT22;15334;49.494;8.410;2023-02-10T03:17:39;-2.00;99.90
28010;DHT22;15334;49.494;8.410;2023-02-10T03:20:10;-2.00;99.90
28010;DHT22;15334;49.494;8.410;2023-02-10T03:22:38;-2.00;99.90
28010;DHT22;15334;49.494;8.410;2023-02-10T03:25:06;-2.10;99.90
28010;DHT22;15334;49.494;8.410;2023-02-10T03:27:34;-2.20;99.90
28010;DHT22;15334;49.494;8.410;2023-02-10T03:30:03;-2.20;99.90
28010;DHT22;15334;49.494;8.410;2023-02-10T03:32:31;-2.20;99.90
28010;DHT22;15334;49.494;8.410;2023-02-10T03:34:59;-2.20;99.90
28010;DHT22;15334;49.494;8.410;2023-02-10T03:37:28;-2.30;99.90
28010;DHT22;15334;49.494;8.410;2023-02-10T03:39:56;-2.30;99.90
28010;DHT22;15334;49.494;8.410;2023-02-10T03:42:25;-2.30;99.90
28010;DHT22;15334;49.494;8.410;2023-02-10T03:44:53;-2.30;99.90
28010;DHT22;15334;49.494;8.410;2023-02-10T03:47:21;-2.30;99.90
28010;DHT22;15334;49.494;8.410;2023-02-10T03:49:49;-2.40;99.90
28010;DHT22;15334;49.494;8.410;2023-02-10T03:52:17;-2.30;99.90
28010;DHT22;15334;49.494;8.410;2023-02-10T03:54:46;-2.30;99.90
28010;DHT22;15334;49.494;8.410;2023-02-10T03:57:14;-2.30;99.90
28010;DHT22;15334;49.494;8.410;2023-02-10T03:59:43;-2.40;99.90
28010;DHT22;15334;49.494;8.410;2023-02-10T04:02:12;-2.30;99.90
28010;DHT22;15334;49.494;8.410;2023-02-10T04:04:43;-2.40;99.90
28010;DHT22;15334;49.494;8.410;2023-02-10T04:07:11;-2.40;99.90
28010;DHT22;15334;49.494;8.410;2023-02-10T04:09:39;-2.40;99.90
28010;DHT22;15334;49.494;8.410;2023-02-10T04:12:09;-2.40;99.90
28010;DHT22;15334;49.494;8.410;2023-02-10T04:14:37;-2.40;99.90
28010;DHT22;15334;49.494;8.410;2023-02-10T04:17:06;-2.40;99.90
28010;DHT22;15334;49.494;8.410;2023-02-10T04:19:35;-2.50;99.90
28010;DHT22;15334;49.494;8.410;2023-02-10T04:22:03;-2.40;99.90
28010;DHT22;15334;49.494;8.410;2023-02-10T04:24:31;-2.40;99.90
28010;DHT22;15334;49.494;8.410;2023-02-10T04:26:59;-2.40;99.90
28010;DHT22;15334;49.494;8.410;2023-02-10T04:29:28;-2.40;99.90
28010;DHT22;15334;49.494;8.410;2023-02-10T04:31:56;-2.40;99.90
28010;DHT22;15334;49.494;8.410;2023-02-10T04:34:24;-2.40;99.90
28010;DHT22;15334;49.494;8.410;2023-02-10T04:36:52;-2.40;99.90
28010;DHT22;15334;49.494;8.410;2023-02-10T04:39:21;-2.50;99.90
28010;DHT22;15334;49.494;8.410;2023-02-10T04:41:48;-2.50;99.90
28010;DHT22;15334;49.494;8.410;2023-02-10T04:44:16;-2.40;99.90
28010;DHT22;15334;49.494;8.410;2023-02-10T04:46:46;-2.50;99.90
28010;DHT22;15334;49.494;8.410;2023-02-10T04:49:14;-2.50;99.90
28010;DHT22;15334;49.494;8.410;2023-02-10T04:51:43;-2.50;99.90
28010;DHT22;15334;49.494;8.410;2023-02-10T04:54:10;-2.50;99.90
28010;DHT22;15334;49.494;8.410;2023-02-10T04:56:38;-2.50;99.90
28010;DHT22;15334;49.494;8.410;2023-02-10T04:59:07;-2.60;99.90
28010;DHT22;15334;49.494;8.410;2023-02-10T05:01:35;-2.60;99.90
28010;DHT22;15334;49.494;8.410;2023-02-10T05:04:04;-2.60;99.90
28010;DHT22;15334;49.494;8.410;2023-02-10T05:06:32;-2.60;99.90
28010;DHT22;15334;49.494;8.410;2023-02-10T05:09:01;-2.60;99.90
28010;DHT22;15334;49.494;8.410;2023-02-10T05:11:29;-2.70;99.90
28010;DHT22;15334;49.494;8.410;2023-02-10T05:13:57;-2.70;99.90
28010;DHT22;15334;49.494;8.410;2023-02-10T05:16:25;-2.70;99.90
28010;DHT22;15334;49.494;8.410;2023-02-10T05:18:53;-2.70;99.90
28010;DHT22;15334;49.494;8.410;2023-02-10T05:21:23;-2.70;99.90
28010;DHT22;15334;49.494;8.410;2023-02-10T05:23:53;-2.70;99.90
28010;DHT22;15334;49.494;8.410;2023-02-10T05:26:22;-2.70;99.90
28010;DHT22;15334;49.494;8.410;2023-02-10T05:28:50;-2.80;99.90
28010;DHT22;15334;49.494;8.410;2023-02-10T05:31:20;-2.70;99.90
28010;DHT22;15334;49.494;8.410;2023-02-10T05:33:52;-2.70;99.90
28010;DHT22;15334;49.494;8.410;2023-02-10T05:36:27;-2.80;99.90
28010;DHT22;15334;49.494;8.410;2023-02-10T05:38:59;-2.70;99.90
28010;DHT22;15334;49.494;8.410;2023-02-10T05:41:45;-2.70;99.90
28010;DHT22;15334;49.494;8.410;2023-02-10T05:44:13;-2.60;99.90
28010;DHT22;15334;49.494;8.410;2023-02-10T05:46:42;-2.50;99.90
28010;DHT22;15334;49.494;8.410;2023-02-10T05:49:11;-2.40;99.90
28010;DHT22;15334;49.494;8.410;2023-02-10T05:51:42;-2.30;99.90
28010;DHT22;15334;49.494;8.410;2023-02-10T05:54:13;-2.30;99.90
28010;DHT22;15334;49.494;8.410;2023-02-10T05:56:43;-2.20;99.90
28010;DHT22;15334;49.494;8.410;2023-02-10T05:59:13;-2.10;99.90
28010;DHT22;15334;49.494;8.410;2023-02-10T06:01:42;-2.00;99.90
28010;DHT22;15334;49.494;8.410;2023-02-10T06:04:10;-2.00;99.90
28010;DHT22;15334;49.494;8.410;2023-02-10T06:06:38;-1.90;99.90
28010;DHT22;15334;49.494;8.410;2023-02-10T06:09:07;-1.90;99.90
28010;DHT22;15334;49.494;8.410;2023-02-10T06:11:35;-1.80;99.90
28010;DHT22;15334;49.494;8.410;2023-02-10T06:14:04;-1.80;99.90
28010;DHT22;15334;49.494;8.410;2023-02-10T06:16:32;-1.70;99.90
28010;DHT22;15334;49.494;8.410;2023-02-10T06:19:00;-1.70;99.90
28010;DHT22;15334;49.494;8.410;2023-02-10T06:21:28;-1.70;99.90
28010;DHT22;15334;49.494;8.410;2023-02-10T06:23:56;-1.60;99.90
28010;DHT22;15334;49.494;8.410;2023-02-10T06:26:25;-1.60;99.90
28010;DHT22;15334;49.494;8.410;2023-02-10T06:28:54;-1.50;99.90
28010;DHT22;15334;49.494;8.410;2023-02-10T06:31:22;-1.50;99.90
28010;DHT22;15334;49.494;8.410;2023-02-10T06:33:52;-1.50;99.90
28010;DHT22;15334;49.494;8.410;2023-02-10T06:36:20;-1.50;99.90
28010;DHT22;15334;49.494;8.410;2023-02-10T06:38:48;-1.50;99.90
28010;DHT22;15334;49.494;8.410;2023-02-10T06:41:16;-1.50;99.90
28010;DHT22;15334;49.494;8.410;2023-02-10T06:43:45;-1.50;99.90
28010;DHT22;15334;49.494;8.410;2023-02-10T06:46:14;-1.50;99.90
28010;DHT22;15334;49.494;8.410;2023-02-10T06:48:44;-1.60;99.90
28010;DHT22;15334;49.494;8.410;2023-02-10T06:51:12;-1.60;99.90
28010;DHT22;15334;49.494;8.410;2023-02-10T06:53:40;-1.70;99.90
28010;DHT22;15334;49.494;8.410;2023-02-10T06:56:09;-1.70;99.90
28010;DHT22;15334;49.494;8.410;2023-02-10T06:58:37;-1.70;99.90
28010;DHT22;15334;49.494;8.410;2023-02-10T07:01:08;-1.70;99.90
28010;DHT22;15334;49.494;8.410;2023-02-10T07:03:36;-1.70;99.90
28010;DHT22;15334;49.494;8.410;2023-02-10T07:06:05;-1.70;99.90
28010;DHT22;15334;49.494;8.410;2023-02-10T07:08:33;-1.80;99.90
28010;DHT22;15334;49.494;8.410;2023-02-10T07:11:01;-1.70;99.90
28010;DHT22;15334;49.494;8.410;2023-02-10T07:13:29;-1.70;99.90
28010;DHT22;15334;49.494;8.410;2023-02-10T07:15:57;-1.70;99.90
28010;DHT22;15334;49.494;8.410;2023-02-10T07:18:26;-1.70;99.90
28010;DHT22;15334;49.494;8.410;2023-02-10T07:20:56;-1.60;99.90
28010;DHT22;15334;49.494;8.410;2023-02-10T07:23:24;-1.60;99.90
28010;DHT22;15334;49.494;8.410;2023-02-10T07:26:03;-1.60;99.90
28010;DHT22;15334;49.494;8.410;2023-02-10T07:28:32;-1.60;99.90
28010;DHT22;15334;49.494;8.410;2023-02-10T07:31:00;-1.60;99.90
28010;DHT22;15334;49.494;8.410;2023-02-10T07:33:30;-1.50;99.90
28010;DHT22;15334;49.494;8.410;2023-02-10T07:35:59;-1.50;99.90
28010;DHT22;15334;49.494;8.410;2023-02-10T07:38:29;-1.40;99.90
28010;DHT22;15334;49.494;8.410;2023-02-10T07:40:57;-1.50;99.90
28010;DHT22;15334;49.494;8.410;2023-02-10T07:43:28;-1.40;99.90
28010;DHT22;15334;49.494;8.410;2023-02-10T07:45:56;-1.40;99.90
28010;DHT22;15334;49.494;8.410;2023-02-10T07:48:24;-1.40;99.90
28010;DHT22;15334;49.494;8.410;2023-02-10T07:50:54;-1.40;99.90
28010;DHT22;15334;49.494;8.410;2023-02-10T07:53:22;-1.30;99.90
28010;DHT22;15334;49.494;8.410;2023-02-10T07:55:50;-1.30;99.90
28010;DHT22;15334;49.494;8.410;2023-02-10T07:58:18;-1.10;99.90
28010;DHT22;15334;49.494;8.410;2023-02-10T08:00:47;-1.10;99.90
28010;DHT22;15334;49.494;8.410;2023-02-10T08:03:17;-1.00;99.90
28010;DHT22;15334;49.494;8.410;2023-02-10T08:05:45;-1.00;99.90
28010;DHT22;15334;49.494;8.410;2023-02-10T08:08:17;-0.90;99.90
28010;DHT22;15334;49.494;8.410;2023-02-10T08:10:45;-0.90;99.90
28010;DHT22;15334;49.494;8.410;2023-02-10T08:13:14;-0.80;99.90
28010;DHT22;15334;49.494;8.410;2023-02-10T08:15:42;-0.80;99.90
28010;DHT22;15334;49.494;8.410;2023-02-10T08:18:10;-0.80;99.90
28010;DHT22;15334;49.494;8.410;2023-02-10T08:20:38;-0.60;99.90
28010;DHT22;15334;49.494;8.410;2023-02-10T08:23:10;-0.60;99.90
28010;DHT22;15334;49.494;8.410;2023-02-10T08:25:43;-0.40;99.90
28010;DHT22;15334;49.494;8.410;2023-02-10T08:28:11;-0.30;99.90
28010;DHT22;15334;49.494;8.410;2023-02-10T08:30:39;-0.10;99.90
28010;DHT22;15334;49.494;8.410;2023-02-10T08:33:07;0.00;99.90
28010;DHT22;15334;49.494;8.410;2023-02-10T08:35:36;0.10;99.90
28010;DHT22;15334;49.494;8.410;2023-02-10T08:38:06;0.30;99.90
28010;DHT22;15334;49.494;8.410;2023-02-10T08:40:35;0.50;99.90
28010;DHT22;15334;49.494;8.410;2023-02-10T08:43:05;0.70;99.90
28010;DHT22;15334;49.494;8.410;2023-02-10T08:45:33;0.90;99.90
28010;DHT22;15334;49.494;8.410;2023-02-10T08:48:01;1.20;99.90
28010;DHT22;15334;49.494;8.410;2023-02-10T08:50:29;1.40;99.90
28010;DHT22;15334;49.494;8.410;2023-02-10T08:52:57;1.60;99.90
28010;DHT22;15334;49.494;8.410;2023-02-10T08:55:25;1.70;99.90
28010;DHT22;15334;49.494;8.410;2023-02-10T08:57:53;1.80;99.90
28010;DHT22;15334;49.494;8.410;2023-02-10T09:00:22;1.80;99.90
28010;DHT22;15334;49.494;8.410;2023-02-10T09:02:51;1.80;99.90
28010;DHT22;15334;49.494;8.410;2023-02-10T09:05:19;1.80;99.90
28010;DHT22;15334;49.494;8.410;2023-02-10T09:07:48;1.90;99.90
28010;DHT22;15334;49.494;8.410;2023-02-10T09:10:16;2.00;99.90
28010;DHT22;15334;49.494;8.410;2023-02-10T09:12:46;2.00;99.90
28010;DHT22;15334;49.494;8.410;2023-02-10T09:15:14;2.10;99.90
28010;DHT22;15334;49.494;8.410;2023-02-10T09:17:44;2.10;99.90
28010;DHT22;15334;49.494;8.410;2023-02-10T09:20:12;2.20;99.90
28010;DHT22;15334;49.494;8.410;2023-02-10T09:22:40;2.20;99.90
28010;DHT22;15334;49.494;8.410;2023-02-10T09:25:09;2.30;99.90
28010;DHT22;15334;49.494;8.410;2023-02-10T09:27:38;2.40;99.90
28010;DHT22;15334;49.494;8.410;2023-02-10T09:30:07;2.50;99.90
28010;DHT22;15334;49.494;8.410;2023-02-10T09:32:38;2.60;99.90
28010;DHT22;15334;49.494;8.410;2023-02-10T09:35:07;2.60;99.90
28010;DHT22;15334;49.494;8.410;2023-02-10T09:37:35;2.70;99.90
28010;DHT22;15334;49.494;8.410;2023-02-10T09:40:05;2.80;99.90
28010;DHT22;15334;49.494;8.410;2023-02-10T09:42:43;3.00;99.90
28010;DHT22;15334;49.494;8.410;2023-02-10T09:45:18;3.10;99.90
28010;DHT22;15334;49.494;8.410;2023-02-10T09:47:51;3.20;99.90
28010;DHT22;15334;49.494;8.410;2023-02-10T09:50:30;3.30;99.90
28010;DHT22;15334;49.494;8.410;2023-02-10T09:53:04;3.30;99.90
28010;DHT22;15334;49.494;8.410;2023-02-10T09:55:39;3.20;99.90
28010;DHT22;15334;49.494;8.410;2023-02-10T09:58:19;3.20;99.90
28010;DHT22;15334;49.494;8.410;2023-02-10T10:00:51;3.20;99.90
28010;DHT22;15334;49.494;8.410;2023-02-10T10:03:23;3.20;99.90
28010;DHT22;15334;49.494;8.410;2023-02-10T10:06:03;3.20;99.90
28010;DHT22;15334;49.494;8.410;2023-02-10T10:08:40;3.20;99.90
28010;DHT22;15334;49.494;8.410;2023-02-10T10:11:22;3.20;99.90
28010;DHT22;15334;49.494;8.410;2023-02-10T10:13:51;3.30;99.90
28010;DHT22;15334;49.494;8.410;2023-02-10T10:19:21;3.40;99.90
28010;DHT22;15334;49.494;8.410;2023-02-10T10:21:58;3.50;99.90
28010;DHT22;15334;49.494;8.410;2023-02-10T10:24:42;3.50;99.90
28010;DHT22;15334;49.494;8.410;2023-02-10T10:27:22;3.50;99.90
28010;DHT22;15334;49.494;8.410;2023-02-10T10:29:53;3.50;99.90
28010;DHT22;15334;49.494;8.410;2023-02-10T10:32:31;3.60;99.90
28010;DHT22;15334;49.494;8.410;2023-02-10T10:35:05;3.60;99.90
28010;DHT22;15334;49.494;8.410;2023-02-10T10:37:40;3.60;99.90
28010;DHT22;15334;49.494;8.410;2023-02-10T10:40:15;3.60;99.90
28010;DHT22;15334;49.494;8.410;2023-02-10T10:42:47;3.70;99.90
28010;DHT22;15334;49.494;8.410;2023-02-10T10:45:19;3.90;99.90
28010;DHT22;15334;49.494;8.410;2023-02-10T10:47:49;4.00;99.90
28010;DHT22;15334;49.494;8.410;2023-02-10T10:50:22;4.00;99.90
28010;DHT22;15334;49.494;8.410;2023-02-10T10:52:58;4.10;99.90
28010;DHT22;15334;49.494;8.410;2023-02-10T10:55:34;4.20;99.90
28010;DHT22;15334;49.494;8.410;2023-02-10T10:58:11;4.40;99.90
28010;DHT22;15334;49.494;8.410;2023-02-10T11:00:50;4.40;99.90
28010;DHT22;15334;49.494;8.410;2023-02-10T11:03:19;4.40;99.90
28010;DHT22;15334;49.494;8.410;2023-02-10T11:05:58;4.30;99.90
28010;DHT22;15334;49.494;8.410;2023-02-10T11:08:30;4.20;99.90
28010;DHT22;15334;49.494;8.410;2023-02-10T11:11:02;4.20;99.90
28010;DHT22;15334;49.494;8.410;2023-02-10T11:13:38;4.20;99.90
28010;DHT22;15334;49.494;8.410;2023-02-10T11:16:12;4.20;99.90
28010;DHT22;15334;49.494;8.410;2023-02-10T11:18:51;4.10;99.90
28010;DHT22;15334;49.494;8.410;2023-02-10T11:21:20;4.10;99.90
28010;DHT22;15334;49.494;8.410;2023-02-10T11:23:52;4.10;99.90
28010;DHT22;15334;49.494;8.410;2023-02-10T11:26:21;4.10;99.90
28010;DHT22;15334;49.494;8.410;2023-02-10T11:28:51;4.20;99.90
28010;DHT22;15334;49.494;8.410;2023-02-10T11:31:28;4.30;99.90
28010;DHT22;15334;49.494;8.410;2023-02-10T11:34:00;4.80;99.90
28010;DHT22;15334;49.494;8.410;2023-02-10T11:36:33;5.30;99.90
28010;DHT22;15334;49.494;8.410;2023-02-10T11:39:05;6.10;99.90
28010;DHT22;15334;49.494;8.410;2023-02-10T11:41:36;7.10;99.90
28010;DHT22;15334;49.494;8.410;2023-02-10T11:44:22;8.70;99.90
28010;DHT22;15334;49.494;8.410;2023-02-10T11:46:56;10.40;99.90
28010;DHT22;15334;49.494;8.410;2023-02-10T11:49:24;11.40;99.90
28010;DHT22;15334;49.494;8.410;2023-02-10T11:51:56;12.80;97.50
28010;DHT22;15334;49.494;8.410;2023-02-10T11:54:27;14.60;94.80
28010;DHT22;15334;49.494;8.410;2023-02-10T11:57:10;16.50;90.00
28010;DHT22;15334;49.494;8.410;2023-02-10T12:00:07;18.10;80.60
28010;DHT22;15334;49.494;8.410;2023-02-10T12:06:05;18.30;71.80
28010;DHT22;15334;49.494;8.410;2023-02-10T12:08:44;19.00;68.80
28010;DHT22;15334;49.494;8.410;2023-02-10T12:11:19;18.80;67.20
28010;DHT22;15334;49.494;8.410;2023-02-10T12:13:54;18.50;66.70
28010;DHT22;15334;49.494;8.410;2023-02-10T12:16:33;18.30;68.20
28010;DHT22;15334;49.494;8.410;2023-02-10T12:19:07;18.60;66.40
28010;DHT22;15334;49.494;8.410;2023-02-10T12:21:55;18.80;64.30
28010;DHT22;15334;49.494;8.410;2023-02-10T12:24:56;18.70;65.50
28010;DHT22;15334;49.494;8.410;2023-02-10T12:27:51;19.20;64.60
28010;DHT22;15334;49.494;8.410;2023-02-10T12:30:33;19.50;63.50
28010;DHT22;15334;49.494;8.410;2023-02-10T12:33:18;20.30;61.90
28010;DHT22;15334;49.494;8.410;2023-02-10T12:35:57;19.80;60.80
28010;DHT22;15334;49.494;8.410;2023-02-10T12:38:40;20.10;59.20
28010;DHT22;15334;49.494;8.410;2023-02-10T12:41:19;19.60;59.10
28010;DHT22;15334;49.494;8.410;2023-02-10T12:44:09;18.70;62.20
28010;DHT22;15334;49.494;8.410;2023-02-10T12:46:45;18.90;59.60
28010;DHT22;15334;49.494;8.410;2023-02-10T12:49:25;18.50;60.60
28010;DHT22;15334;49.494;8.410;2023-02-10T12:52:04;18.70;61.40
28010;DHT22;15334;49.494;8.410;2023-02-10T12:54:39;19.10;59.80
28010;DHT22;15334;49.494;8.410;2023-02-10T12:57:14;18.50;59.80
28010;DHT22;15334;49.494;8.410;2023-02-10T12:59:53;18.70;61.10
28010;DHT22;15334;49.494;8.410;2023-02-10T13:02:28;19.10;59.20
28010;DHT22;15334;49.494;8.410;2023-02-10T13:05:05;18.80;60.10
28010;DHT22;15334;49.494;8.410;2023-02-10T13:07:42;18.30;60.00
28010;DHT22;15334;49.494;8.410;2023-02-10T13:10:22;17.80;62.00
28010;DHT22;15334;49.494;8.410;2023-02-10T13:12:59;17.50;61.70
28010;DHT22;15334;49.494;8.410;2023-02-10T13:15:31;17.60;61.20
28010;DHT22;15334;49.494;8.410;2023-02-10T13:18:02;17.40;62.00
28010;DHT22;15334;49.494;8.410;2023-02-10T13:20:37;16.60;64.30
28010;DHT22;15334;49.494;8.410;2023-02-10T13:23:16;15.00;66.60
28010;DHT22;15334;49.494;8.410;2023-02-10T13:26:07;13.30;70.60
28010;DHT22;15334;49.494;8.410;2023-02-10T13:28:45;12.10;74.40
28010;DHT22;15334;49.494;8.410;2023-02-10T13:31:27;11.20;79.70
28010;DHT22;15334;49.494;8.410;2023-02-10T13:34:02;10.60;80.10
28010;DHT22;15334;49.494;8.410;2023-02-10T13:36:34;10.20;81.10
28010;DHT22;15334;49.494;8.410;2023-02-10T13:39:04;9.80;83.10
28010;DHT22;15334;49.494;8.410;2023-02-10T13:41:35;9.80;84.40
28010;DHT22;15334;49.494;8.410;2023-02-10T13:44:23;9.70;85.00
28010;DHT22;15334;49.494;8.410;2023-02-10T13:47:08;9.60;86.40
28010;DHT22;15334;49.494;8.410;2023-02-10T13:49:51;9.50;86.80
28010;DHT22;15334;49.494;8.410;2023-02-10T13:52:22;9.40;84.50
28010;DHT22;15334;49.494;8.410;2023-02-10T13:54:57;9.20;82.10
28010;DHT22;15334;49.494;8.410;2023-02-10T13:57:31;8.90;83.50
28010;DHT22;15334;49.494;8.410;2023-02-10T14:00:13;8.70;85.00
28010;DHT22;15334;49.494;8.410;2023-02-10T14:02:44;8.60;88.30
28010;DHT22;15334;49.494;8.410;2023-02-10T14:05:25;8.60;88.70
28010;DHT22;15334;49.494;8.410;2023-02-10T14:07:55;8.50;88.20
28010;DHT22;15334;49.494;8.410;2023-02-10T14:10:30;8.50;89.10
28010;DHT22;15334;49.494;8.410;2023-02-10T14:13:04;8.40;90.10
28010;DHT22;15334;49.494;8.410;2023-02-10T14:15:35;8.30;90.80
28010;DHT22;15334;49.494;8.410;2023-02-10T14:18:22;8.20;90.20
28010;DHT22;15334;49.494;8.410;2023-02-10T14:20:55;8.00;90.90
28010;DHT22;15334;49.494;8.410;2023-02-10T14:23:30;8.00;92.20
28010;DHT22;15334;49.494;8.410;2023-02-10T14:26:14;8.00;92.20
28010;DHT22;15334;49.494;8.410;2023-02-10T14:28:50;7.90;92.70
28010;DHT22;15334;49.494;8.410;2023-02-10T14:31:26;7.80;92.50
28010;DHT22;15334;49.494;8.410;2023-02-10T14:34:00;7.80;92.30
28010;DHT22;15334;49.494;8.410;2023-02-10T14:36:29;7.80;92.80
28010;DHT22;15334;49.494;8.410;2023-02-10T14:38:59;7.80;92.60
28010;DHT22;15334;49.494;8.410;2023-02-10T14:41:32;7.70;93.00
28010;DHT22;15334;49.494;8.410;2023-02-10T14:44:00;7.70;94.00
28010;DHT22;15334;49.494;8.410;2023-02-10T14:46:31;7.70;94.70
28010;DHT22;15334;49.494;8.410;2023-02-10T14:49:09;7.70;94.10
28010;DHT22;15334;49.494;8.410;2023-02-10T14:51:40;7.60;93.80
28010;DHT22;15334;49.494;8.410;2023-02-10T14:54:09;7.70;93.70
28010;DHT22;15334;49.494;8.410;2023-02-10T14:56:37;7.60;93.50
28010;DHT22;15334;49.494;8.410;2023-02-10T14:59:18;7.60;93.90
28010;DHT22;15334;49.494;8.410;2023-02-10T15:01:52;7.60;94.20
28010;DHT22;15334;49.494;8.410;2023-02-10T15:04:27;7.50;95.20
28010;DHT22;15334;49.494;8.410;2023-02-10T15:06:58;7.50;95.50
28010;DHT22;15334;49.494;8.410;2023-02-10T15:09:33;7.50;95.50
28010;DHT22;15334;49.494;8.410;2023-02-10T15:12:03;7.60;95.50
28010;DHT22;15334;49.494;8.410;2023-02-10T15:14:47;7.50;95.10
28010;DHT22;15334;49.494;8.410;2023-02-10T15:17:19;7.50;95.90
28010;DHT22;15334;49.494;8.410;2023-02-10T15:19:55;7.50;95.80
28010;DHT22;15334;49.494;8.410;2023-02-10T15:22:35;7.50;96.10
28010;DHT22;15334;49.494;8.410;2023-02-10T15:25:29;7.40;97.20
28010;DHT22;15334;49.494;8.410;2023-02-10T15:27:57;7.30;97.00
28010;DHT22;15334;49.494;8.410;2023-02-10T15:30:46;7.30;96.70
28010;DHT22;15334;49.494;8.410;2023-02-10T15:33:26;7.30;97.80
28010;DHT22;15334;49.494;8.410;2023-02-10T15:36:13;7.30;98.50
28010;DHT22;15334;49.494;8.410;2023-02-10T15:38:50;7.30;98.80
28010;DHT22;15334;49.494;8.410;2023-02-10T15:41:28;7.30;99.00
28010;DHT22;15334;49.494;8.410;2023-02-10T15:43:58;7.40;98.70
28010;DHT22;15334;49.494;8.410;2023-02-10T15:46:28;7.40;99.20
28010;DHT22;15334;49.494;8.410;2023-02-10T15:49:07;7.40;98.70
28010;DHT22;15334;49.494;8.410;2023-02-10T15:51:41;7.40;99.10
28010;DHT22;15334;49.494;8.410;2023-02-10T15:54:17;7.40;98.80
28010;DHT22;15334;49.494;8.410;2023-02-10T15:56:56;7.40;98.80
28010;DHT22;15334;49.494;8.410;2023-02-10T15:59:28;7.40;98.00
28010;DHT22;15334;49.494;8.410;2023-02-10T16:02:00;7.40;98.50
28010;DHT22;15334;49.494;8.410;2023-02-10T16:04:29;7.40;99.00
28010;DHT22;15334;49.494;8.410;2023-02-10T16:07:01;7.20;98.50
28010;DHT22;15334;49.494;8.410;2023-02-10T16:09:30;7.20;99.00
28010;DHT22;15334;49.494;8.410;2023-02-10T16:12:00;7.10;99.30
28010;DHT22;15334;49.494;8.410;2023-02-10T16:14:29;7.10;99.90
28010;DHT22;15334;49.494;8.410;2023-02-10T16:16:59;7.00;99.90
28010;DHT22;15334;49.494;8.410;2023-02-10T16:19:28;6.90;99.90